Terminal Aerodrome Forecast
Issued by NWS Portland, OR

Home | Current Version | Previous Version | Text Only | Print | Product List | Glossary On
Versions: 1 2 3 4 5 6 7 8 9 10 11 12 13 14 15 16
000
FTUS46 KPQR 180632 AAA
TAFSLE
TAF AMD
KSLE 180632Z 1807/1906 18006KT P6SM BKN025 BKN080
     FM181500 18008KT P6SM BKN014 OVC035
     FM182300 18006KT P6SM SCT025 OVC050=

USA.gov is the U.S. government's official web portal to all federal, state and local government web resources and services.